sensor_id;sensor_type;location;lat;lon;timestamp;P1;durP1;ratioP1;P2;durP2;ratioP2
33902;SDS011;20194;50.950;5.346;2022-11-20T00:00:28;35.70;;;17.15;;
33902;SDS011;20194;50.950;5.346;2022-11-20T00:02:54;32.83;;;16.00;;
33902;SDS011;20194;50.950;5.346;2022-11-20T00:05:20;30.67;;;15.75;;
33902;SDS011;20194;50.950;5.346;2022-11-20T00:07:46;32.63;;;16.70;;
33902;SDS011;20194;50.950;5.346;2022-11-20T00:10:11;34.25;;;15.13;;
33902;SDS011;20194;50.950;5.346;2022-11-20T00:12:37;32.38;;;15.85;;
33902;SDS011;20194;50.950;5.346;2022-11-20T00:15:03;35.25;;;15.07;;
33902;SDS011;20194;50.950;5.346;2022-11-20T00:17:29;33.78;;;15.57;;
33902;SDS011;20194;50.950;5.346;2022-11-20T00:19:55;31.75;;;15.65;;
33902;SDS011;20194;50.950;5.346;2022-11-20T00:22:20;33.28;;;15.70;;
33902;SDS011;20194;50.950;5.346;2022-11-20T00:24:46;31.95;;;16.00;;
33902;SDS011;20194;50.950;5.346;2022-11-20T00:27:12;32.05;;;15.77;;
33902;SDS011;20194;50.950;5.346;2022-11-20T00:29:38;36.05;;;16.48;;
33902;SDS011;20194;50.950;5.346;2022-11-20T00:32:04;34.13;;;16.23;;
33902;SDS011;20194;50.950;5.346;2022-11-20T00:34:29;31.52;;;15.30;;
33902;SDS011;20194;50.950;5.346;2022-11-20T00:36:56;34.90;;;16.08;;
33902;SDS011;20194;50.950;5.346;2022-11-20T00:39:21;31.52;;;15.75;;
33902;SDS011;20194;50.950;5.346;2022-11-20T00:41:47;36.70;;;15.73;;
33902;SDS011;20194;50.950;5.346;2022-11-20T00:44:12;39.67;;;17.05;;
33902;SDS011;20194;50.950;5.346;2022-11-20T00:46:38;34.42;;;15.90;;
33902;SDS011;20194;50.950;5.346;2022-11-20T00:49:04;32.85;;;16.20;;
33902;SDS011;20194;50.950;5.346;2022-11-20T00:51:29;30.70;;;15.10;;
33902;SDS011;20194;50.950;5.346;2022-11-20T00:53:56;32.22;;;16.83;;
33902;SDS011;20194;50.950;5.346;2022-11-20T00:56:25;32.00;;;16.52;;
33902;SDS011;20194;50.950;5.346;2022-11-20T00:58:51;33.42;;;17.25;;
33902;SDS011;20194;50.950;5.346;2022-11-20T01:01:18;34.63;;;16.92;;
33902;SDS011;20194;50.950;5.346;2022-11-20T01:03:46;40.15;;;17.85;;
33902;SDS011;20194;50.950;5.346;2022-11-20T01:06:15;35.58;;;16.60;;
33902;SDS011;20194;50.950;5.346;2022-11-20T01:08:41;32.38;;;16.55;;
33902;SDS011;20194;50.950;5.346;2022-11-20T01:11:09;33.13;;;16.10;;
33902;SDS011;20194;50.950;5.346;2022-11-20T01:13:36;35.75;;;17.52;;
33902;SDS011;20194;50.950;5.346;2022-11-20T01:16:18;33.42;;;16.98;;
33902;SDS011;20194;50.950;5.346;2022-11-20T01:18:48;33.30;;;16.77;;
33902;SDS011;20194;50.950;5.346;2022-11-20T01:21:17;32.53;;;16.27;;
33902;SDS011;20194;50.950;5.346;2022-11-20T01:23:44;35.85;;;16.77;;
33902;SDS011;20194;50.950;5.346;2022-11-20T01:26:12;33.15;;;16.83;;
33902;SDS011;20194;50.950;5.346;2022-11-20T01:28:40;33.30;;;17.02;;
33902;SDS011;20194;50.950;5.346;2022-11-20T01:33:45;34.80;;;16.17;;
33902;SDS011;20194;50.950;5.346;2022-11-20T01:36:12;31.48;;;16.02;;
33902;SDS011;20194;50.950;5.346;2022-11-20T01:38:38;33.97;;;16.33;;
33902;SDS011;20194;50.950;5.346;2022-11-20T01:41:04;31.98;;;16.65;;
33902;SDS011;20194;50.950;5.346;2022-11-20T01:43:31;34.00;;;16.85;;
33902;SDS011;20194;50.950;5.346;2022-11-20T01:53:53;32.95;;;16.42;;
33902;SDS011;20194;50.950;5.346;2022-11-20T01:56:20;33.45;;;16.40;;
33902;SDS011;20194;50.950;5.346;2022-11-20T01:58:48;37.17;;;16.83;;
33902;SDS011;20194;50.950;5.346;2022-11-20T02:01:17;34.58;;;16.75;;
33902;SDS011;20194;50.950;5.346;2022-11-20T02:03:43;34.55;;;17.23;;
33902;SDS011;20194;50.950;5.346;2022-11-20T02:06:11;32.58;;;16.10;;
33902;SDS011;20194;50.950;5.346;2022-11-20T02:08:55;31.33;;;16.10;;
33902;SDS011;20194;50.950;5.346;2022-11-20T02:11:21;32.45;;;15.93;;
33902;SDS011;20194;50.950;5.346;2022-11-20T02:13:47;29.77;;;15.77;;
33902;SDS011;20194;50.950;5.346;2022-11-20T02:16:15;34.75;;;16.98;;
33902;SDS011;20194;50.950;5.346;2022-11-20T02:18:43;34.67;;;16.92;;
33902;SDS011;20194;50.950;5.346;2022-11-20T02:21:16;31.63;;;17.40;;
33902;SDS011;20194;50.950;5.346;2022-11-20T02:24:12;37.00;;;16.20;;
33902;SDS011;20194;50.950;5.346;2022-11-20T02:27:01;37.45;;;16.35;;
33902;SDS011;20194;50.950;5.346;2022-11-20T02:29:33;30.88;;;15.65;;
33902;SDS011;20194;50.950;5.346;2022-11-20T02:32:44;35.47;;;16.60;;
33902;SDS011;20194;50.950;5.346;2022-11-20T02:35:07;31.42;;;16.10;;
33902;SDS011;20194;50.950;5.346;2022-11-20T02:37:36;31.50;;;16.13;;
33902;SDS011;20194;50.950;5.346;2022-11-20T02:40:05;31.83;;;15.20;;
33902;SDS011;20194;50.950;5.346;2022-11-20T02:42:31;31.20;;;16.45;;
33902;SDS011;20194;50.950;5.346;2022-11-20T02:44:56;33.50;;;16.08;;
33902;SDS011;20194;50.950;5.346;2022-11-20T02:47:22;32.33;;;16.15;;
33902;SDS011;20194;50.950;5.346;2022-11-20T02:49:48;28.15;;;15.07;;
33902;SDS011;20194;50.950;5.346;2022-11-20T02:52:13;32.05;;;16.42;;
33902;SDS011;20194;50.950;5.346;2022-11-20T02:54:39;29.85;;;15.90;;
33902;SDS011;20194;50.950;5.346;2022-11-20T02:57:04;31.60;;;16.20;;
33902;SDS011;20194;50.950;5.346;2022-11-20T02:59:30;31.25;;;15.50;;
33902;SDS011;20194;50.950;5.346;2022-11-20T03:01:56;34.65;;;16.13;;
33902;SDS011;20194;50.950;5.346;2022-11-20T03:04:21;31.00;;;14.95;;
33902;SDS011;20194;50.950;5.346;2022-11-20T03:06:47;33.60;;;16.35;;
33902;SDS011;20194;50.950;5.346;2022-11-20T03:09:13;34.58;;;16.63;;
33902;SDS011;20194;50.950;5.346;2022-11-20T03:11:39;33.83;;;17.17;;
33902;SDS011;20194;50.950;5.346;2022-11-20T03:14:05;30.08;;;14.88;;
33902;SDS011;20194;50.950;5.346;2022-11-20T03:16:31;30.55;;;15.32;;
33902;SDS011;20194;50.950;5.346;2022-11-20T03:18:58;32.03;;;16.40;;
33902;SDS011;20194;50.950;5.346;2022-11-20T03:21:24;30.35;;;16.45;;
33902;SDS011;20194;50.950;5.346;2022-11-20T03:23:50;32.58;;;16.33;;
33902;SDS011;20194;50.950;5.346;2022-11-20T03:26:16;32.83;;;17.08;;
33902;SDS011;20194;50.950;5.346;2022-11-20T03:28:48;33.38;;;16.08;;
33902;SDS011;20194;50.950;5.346;2022-11-20T03:31:16;27.90;;;14.48;;
33902;SDS011;20194;50.950;5.346;2022-11-20T03:33:44;32.35;;;15.95;;
33902;SDS011;20194;50.950;5.346;2022-11-20T03:36:10;32.05;;;15.23;;
33902;SDS011;20194;50.950;5.346;2022-11-20T03:38:37;30.63;;;15.18;;
33902;SDS011;20194;50.950;5.346;2022-11-20T03:41:05;33.67;;;16.50;;
33902;SDS011;20194;50.950;5.346;2022-11-20T03:43:32;33.88;;;16.17;;
33902;SDS011;20194;50.950;5.346;2022-11-20T03:45:58;34.28;;;17.02;;
33902;SDS011;20194;50.950;5.346;2022-11-20T03:48:24;27.10;;;13.95;;
33902;SDS011;20194;50.950;5.346;2022-11-20T03:50:51;32.00;;;15.32;;
33902;SDS011;20194;50.950;5.346;2022-11-20T03:53:18;32.08;;;16.15;;
33902;SDS011;20194;50.950;5.346;2022-11-20T03:55:45;33.00;;;16.77;;
33902;SDS011;20194;50.950;5.346;2022-11-20T03:58:16;30.60;;;15.77;;
33902;SDS011;20194;50.950;5.346;2022-11-20T04:00:43;29.65;;;15.43;;
33902;SDS011;20194;50.950;5.346;2022-11-20T04:03:08;35.20;;;16.85;;
33902;SDS011;20194;50.950;5.346;2022-11-20T04:05:34;30.73;;;16.27;;
33902;SDS011;20194;50.950;5.346;2022-11-20T04:07:59;30.77;;;15.25;;
33902;SDS011;20194;50.950;5.346;2022-11-20T04:10:25;35.17;;;16.38;;
33902;SDS011;20194;50.950;5.346;2022-11-20T04:12:51;30.27;;;15.65;;
33902;SDS011;20194;50.950;5.346;2022-11-20T04:15:16;28.92;;;15.38;;
33902;SDS011;20194;50.950;5.346;2022-11-20T04:17:43;36.17;;;17.00;;
33902;SDS011;20194;50.950;5.346;2022-11-20T04:20:09;29.40;;;15.45;;
33902;SDS011;20194;50.950;5.346;2022-11-20T04:22:34;32.15;;;16.38;;
33902;SDS011;20194;50.950;5.346;2022-11-20T04:25:00;31.63;;;15.23;;
33902;SDS011;20194;50.950;5.346;2022-11-20T04:27:26;30.17;;;16.17;;
33902;SDS011;20194;50.950;5.346;2022-11-20T04:29:52;33.08;;;16.10;;
33902;SDS011;20194;50.950;5.346;2022-11-20T04:32:18;41.55;;;16.77;;
33902;SDS011;20194;50.950;5.346;2022-11-20T04:34:43;41.25;;;18.17;;
33902;SDS011;20194;50.950;5.346;2022-11-20T04:37:09;34.78;;;16.65;;
33902;SDS011;20194;50.950;5.346;2022-11-20T04:39:35;38.65;;;16.73;;
33902;SDS011;20194;50.950;5.346;2022-11-20T04:42:01;35.13;;;16.98;;
33902;SDS011;20194;50.950;5.346;2022-11-20T04:47:10;37.25;;;17.60;;
33902;SDS011;20194;50.950;5.346;2022-11-20T04:49:36;37.33;;;16.95;;
33902;SDS011;20194;50.950;5.346;2022-11-20T04:52:01;35.03;;;17.90;;
33902;SDS011;20194;50.950;5.346;2022-11-20T04:54:27;42.92;;;18.73;;
33902;SDS011;20194;50.950;5.346;2022-11-20T04:56:53;29.60;;;16.48;;
33902;SDS011;20194;50.950;5.346;2022-11-20T04:59:18;44.92;;;19.00;;
33902;SDS011;20194;50.950;5.346;2022-11-20T05:01:44;54.58;;;19.88;;
33902;SDS011;20194;50.950;5.346;2022-11-20T05:04:10;46.08;;;20.02;;
33902;SDS011;20194;50.950;5.346;2022-11-20T05:06:36;51.03;;;21.30;;
33902;SDS011;20194;50.950;5.346;2022-11-20T05:09:01;47.30;;;20.10;;
33902;SDS011;20194;50.950;5.346;2022-11-20T05:11:28;56.53;;;20.88;;
33902;SDS011;20194;50.950;5.346;2022-11-20T05:13:54;50.63;;;20.33;;
33902;SDS011;20194;50.950;5.346;2022-11-20T05:16:21;49.95;;;20.42;;
33902;SDS011;20194;50.950;5.346;2022-11-20T05:18:48;46.58;;;20.38;;
33902;SDS011;20194;50.950;5.346;2022-11-20T05:21:15;53.17;;;20.60;;
33902;SDS011;20194;50.950;5.346;2022-11-20T05:23:41;45.58;;;20.08;;
33902;SDS011;20194;50.950;5.346;2022-11-20T05:26:11;46.90;;;20.30;;
33902;SDS011;20194;50.950;5.346;2022-11-20T05:28:47;51.17;;;20.38;;
33902;SDS011;20194;50.950;5.346;2022-11-20T05:31:15;42.72;;;20.52;;
33902;SDS011;20194;50.950;5.346;2022-11-20T05:33:45;50.20;;;19.83;;
33902;SDS011;20194;50.950;5.346;2022-11-20T05:36:11;40.92;;;19.50;;
33902;SDS011;20194;50.950;5.346;2022-11-20T05:38:39;47.90;;;21.85;;
33902;SDS011;20194;50.950;5.346;2022-11-20T05:41:09;53.65;;;23.08;;
33902;SDS011;20194;50.950;5.346;2022-11-20T05:43:37;57.22;;;22.35;;
33902;SDS011;20194;50.950;5.346;2022-11-20T05:46:03;47.60;;;19.17;;
33902;SDS011;20194;50.950;5.346;2022-11-20T05:48:30;46.20;;;20.23;;
33902;SDS011;20194;50.950;5.346;2022-11-20T05:51:00;53.67;;;21.05;;
33902;SDS011;20194;50.950;5.346;2022-11-20T05:53:27;50.78;;;19.85;;
33902;SDS011;20194;50.950;5.346;2022-11-20T05:55:57;49.20;;;21.40;;
33902;SDS011;20194;50.950;5.346;2022-11-20T05:58:27;58.80;;;21.13;;
33902;SDS011;20194;50.950;5.346;2022-11-20T06:00:53;50.83;;;20.65;;
33902;SDS011;20194;50.950;5.346;2022-11-20T06:03:19;50.85;;;20.42;;
33902;SDS011;20194;50.950;5.346;2022-11-20T06:05:45;45.83;;;21.20;;
33902;SDS011;20194;50.950;5.346;2022-11-20T06:08:11;46.80;;;20.55;;
33902;SDS011;20194;50.950;5.346;2022-11-20T06:10:37;52.22;;;21.63;;
33902;SDS011;20194;50.950;5.346;2022-11-20T06:13:02;51.97;;;20.98;;
33902;SDS011;20194;50.950;5.346;2022-11-20T06:15:28;47.88;;;20.30;;
33902;SDS011;20194;50.950;5.346;2022-11-20T06:17:54;55.58;;;21.10;;
33902;SDS011;20194;50.950;5.346;2022-11-20T06:20:22;52.85;;;21.20;;
33902;SDS011;20194;50.950;5.346;2022-11-20T06:22:48;52.88;;;21.02;;
33902;SDS011;20194;50.950;5.346;2022-11-20T06:25:14;54.90;;;21.77;;
33902;SDS011;20194;50.950;5.346;2022-11-20T06:27:39;49.30;;;20.02;;
33902;SDS011;20194;50.950;5.346;2022-11-20T06:30:05;46.90;;;19.42;;
33902;SDS011;20194;50.950;5.346;2022-11-20T06:32:32;49.45;;;20.35;;
33902;SDS011;20194;50.950;5.346;2022-11-20T06:34:58;50.70;;;21.80;;
33902;SDS011;20194;50.950;5.346;2022-11-20T06:37:24;51.85;;;21.05;;
33902;SDS011;20194;50.950;5.346;2022-11-20T06:39:50;50.42;;;21.20;;
33902;SDS011;20194;50.950;5.346;2022-11-20T06:42:15;47.83;;;20.58;;
33902;SDS011;20194;50.950;5.346;2022-11-20T06:44:41;44.75;;;20.15;;
33902;SDS011;20194;50.950;5.346;2022-11-20T06:47:06;59.38;;;22.50;;
33902;SDS011;20194;50.950;5.346;2022-11-20T06:49:32;59.33;;;22.50;;
33902;SDS011;20194;50.950;5.346;2022-11-20T06:51:59;54.92;;;22.05;;
33902;SDS011;20194;50.950;5.346;2022-11-20T06:54:24;57.78;;;21.80;;
33902;SDS011;20194;50.950;5.346;2022-11-20T06:56:50;59.28;;;22.75;;
33902;SDS011;20194;50.950;5.346;2022-11-20T06:59:16;58.20;;;22.23;;
33902;SDS011;20194;50.950;5.346;2022-11-20T07:01:41;52.17;;;22.20;;
33902;SDS011;20194;50.950;5.346;2022-11-20T07:04:07;51.78;;;21.45;;
33902;SDS011;20194;50.950;5.346;2022-11-20T07:06:33;51.33;;;21.30;;
33902;SDS011;20194;50.950;5.346;2022-11-20T07:08:58;57.95;;;21.42;;
33902;SDS011;20194;50.950;5.346;2022-11-20T07:11:25;52.45;;;20.48;;
33902;SDS011;20194;50.950;5.346;2022-11-20T07:13:50;49.33;;;20.15;;
33902;SDS011;20194;50.950;5.346;2022-11-20T07:16:16;54.78;;;22.95;;
33902;SDS011;20194;50.950;5.346;2022-11-20T07:18:42;54.97;;;21.88;;
33902;SDS011;20194;50.950;5.346;2022-11-20T07:21:09;54.42;;;22.38;;
33902;SDS011;20194;50.950;5.346;2022-11-20T07:23:35;50.42;;;20.48;;
33902;SDS011;20194;50.950;5.346;2022-11-20T07:26:09;55.58;;;21.77;;
33902;SDS011;20194;50.950;5.346;2022-11-20T07:31:01;50.58;;;20.35;;
33902;SDS011;20194;50.950;5.346;2022-11-20T07:33:27;58.72;;;23.08;;
33902;SDS011;20194;50.950;5.346;2022-11-20T07:35:53;55.83;;;22.05;;
33902;SDS011;20194;50.950;5.346;2022-11-20T07:38:19;58.42;;;22.27;;
33902;SDS011;20194;50.950;5.346;2022-11-20T07:40:44;51.20;;;20.38;;
33902;SDS011;20194;50.950;5.346;2022-11-20T07:43:10;48.45;;;20.33;;
33902;SDS011;20194;50.950;5.346;2022-11-20T07:45:36;49.95;;;21.45;;
33902;SDS011;20194;50.950;5.346;2022-11-20T07:48:01;48.33;;;21.13;;
33902;SDS011;20194;50.950;5.346;2022-11-20T07:50:28;57.28;;;20.38;;
33902;SDS011;20194;50.950;5.346;2022-11-20T07:53:03;40.95;;;19.77;;
33902;SDS011;20194;50.950;5.346;2022-11-20T07:55:30;47.58;;;19.58;;
33902;SDS011;20194;50.950;5.346;2022-11-20T07:57:56;47.50;;;20.27;;
33902;SDS011;20194;50.950;5.346;2022-11-20T08:00:23;48.10;;;20.05;;
33902;SDS011;20194;50.950;5.346;2022-11-20T08:02:49;49.10;;;20.27;;
33902;SDS011;20194;50.950;5.346;2022-11-20T08:05:15;51.15;;;21.15;;
33902;SDS011;20194;50.950;5.346;2022-11-20T08:07:41;44.47;;;20.00;;
33902;SDS011;20194;50.950;5.346;2022-11-20T08:10:08;53.35;;;20.55;;
33902;SDS011;20194;50.950;5.346;2022-11-20T08:12:43;57.95;;;22.10;;
33902;SDS011;20194;50.950;5.346;2022-11-20T08:15:29;58.20;;;21.55;;
33902;SDS011;20194;50.950;5.346;2022-11-20T08:18:16;52.28;;;20.13;;
33902;SDS011;20194;50.950;5.346;2022-11-20T08:20:42;58.95;;;19.88;;
33902;SDS011;20194;50.950;5.346;2022-11-20T08:23:08;59.35;;;22.27;;
33902;SDS011;20194;50.950;5.346;2022-11-20T08:25:34;52.85;;;21.55;;
33902;SDS011;20194;50.950;5.346;2022-11-20T08:28:01;55.83;;;20.65;;
33902;SDS011;20194;50.950;5.346;2022-11-20T08:30:32;58.05;;;23.50;;
33902;SDS011;20194;50.950;5.346;2022-11-20T08:33:05;60.58;;;22.83;;
33902;SDS011;20194;50.950;5.346;2022-11-20T08:35:35;51.70;;;21.92;;
33902;SDS011;20194;50.950;5.346;2022-11-20T08:38:03;53.85;;;21.27;;
33902;SDS011;20194;50.950;5.346;2022-11-20T08:40:29;60.38;;;21.80;;
33902;SDS011;20194;50.950;5.346;2022-11-20T08:42:55;55.10;;;21.90;;
33902;SDS011;20194;50.950;5.346;2022-11-20T08:45:21;58.28;;;23.65;;
33902;SDS011;20194;50.950;5.346;2022-11-20T08:47:47;57.58;;;21.48;;
33902;SDS011;20194;50.950;5.346;2022-11-20T08:50:14;61.42;;;22.98;;
33902;SDS011;20194;50.950;5.346;2022-11-20T08:52:40;54.15;;;22.00;;
33902;SDS011;20194;50.950;5.346;2022-11-20T08:55:06;59.17;;;22.20;;
33902;SDS011;20194;50.950;5.346;2022-11-20T08:57:33;64.88;;;22.55;;
33902;SDS011;20194;50.950;5.346;2022-11-20T09:00:03;65.80;;;22.25;;
33902;SDS011;20194;50.950;5.346;2022-11-20T09:02:31;60.33;;;22.83;;
33902;SDS011;20194;50.950;5.346;2022-11-20T09:04:57;51.63;;;20.35;;
33902;SDS011;20194;50.950;5.346;2022-11-20T09:07:23;60.35;;;22.08;;
33902;SDS011;20194;50.950;5.346;2022-11-20T09:09:49;59.00;;;23.80;;
33902;SDS011;20194;50.950;5.346;2022-11-20T09:12:15;52.15;;;21.25;;
33902;SDS011;20194;50.950;5.346;2022-11-20T09:14:41;64.25;;;22.52;;
33902;SDS011;20194;50.950;5.346;2022-11-20T09:17:07;52.47;;;19.73;;
33902;SDS011;20194;50.950;5.346;2022-11-20T09:19:35;54.83;;;22.10;;
33902;SDS011;20194;50.950;5.346;2022-11-20T09:22:00;63.13;;;21.63;;
33902;SDS011;20194;50.950;5.346;2022-11-20T09:24:26;54.17;;;21.67;;
33902;SDS011;20194;50.950;5.346;2022-11-20T09:26:53;53.72;;;20.58;;
33902;SDS011;20194;50.950;5.346;2022-11-20T09:29:18;52.72;;;21.45;;
33902;SDS011;20194;50.950;5.346;2022-11-20T09:31:44;53.10;;;22.98;;
33902;SDS011;20194;50.950;5.346;2022-11-20T09:34:09;55.13;;;21.85;;
33902;SDS011;20194;50.950;5.346;2022-11-20T09:36:35;54.90;;;23.52;;
33902;SDS011;20194;50.950;5.346;2022-11-20T09:39:01;58.95;;;20.73;;
33902;SDS011;20194;50.950;5.346;2022-11-20T09:44:05;64.35;;;23.55;;
33902;SDS011;20194;50.950;5.346;2022-11-20T09:47:07;54.05;;;21.52;;
33902;SDS011;20194;50.950;5.346;2022-11-20T09:55:13;60.20;;;21.52;;
33902;SDS011;20194;50.950;5.346;2022-11-20T09:57:40;59.42;;;22.70;;
33902;SDS011;20194;50.950;5.346;2022-11-20T10:00:10;61.03;;;20.98;;
33902;SDS011;20194;50.950;5.346;2022-11-20T10:02:41;65.82;;;21.42;;
33902;SDS011;20194;50.950;5.346;2022-11-20T10:13:26;60.10;;;22.58;;
33902;SDS011;20194;50.950;5.346;2022-11-20T10:29:34;58.37;;;21.00;;
33902;SDS011;20194;50.950;5.346;2022-11-20T10:32:04;58.50;;;20.50;;
33902;SDS011;20194;50.950;5.346;2022-11-20T10:34:50;69.57;;;23.38;;
33902;SDS011;20194;50.950;5.346;2022-11-20T10:37:24;63.97;;;25.35;;
33902;SDS011;20194;50.950;5.346;2022-11-20T10:39:54;63.72;;;23.73;;
33902;SDS011;20194;50.950;5.346;2022-11-20T10:42:41;66.80;;;22.65;;
33902;SDS011;20194;50.950;5.346;2022-11-20T10:45:21;61.83;;;21.45;;
33902;SDS011;20194;50.950;5.346;2022-11-20T10:47:54;60.38;;;22.58;;
33902;SDS011;20194;50.950;5.346;2022-11-20T10:50:35;59.67;;;22.40;;
33902;SDS011;20194;50.950;5.346;2022-11-20T10:56:00;67.88;;;22.50;;
33902;SDS011;20194;50.950;5.346;2022-11-20T10:58:48;72.07;;;24.35;;
33902;SDS011;20194;50.950;5.346;2022-11-20T11:01:29;68.10;;;22.58;;
33902;SDS011;20194;50.950;5.346;2022-11-20T11:03:55;70.30;;;22.63;;
33902;SDS011;20194;50.950;5.346;2022-11-20T11:06:31;64.28;;;21.08;;
33902;SDS011;20194;50.950;5.346;2022-11-20T11:09:12;63.78;;;21.42;;
33902;SDS011;20194;50.950;5.346;2022-11-20T11:11:47;70.40;;;22.65;;
33902;SDS011;20194;50.950;5.346;2022-11-20T11:14:14;77.75;;;22.33;;
33902;SDS011;20194;50.950;5.346;2022-11-20T11:17:01;65.88;;;23.10;;
33902;SDS011;20194;50.950;5.346;2022-11-20T11:19:26;62.92;;;21.98;;
33902;SDS011;20194;50.950;5.346;2022-11-20T11:21:53;62.67;;;23.40;;
33902;SDS011;20194;50.950;5.346;2022-11-20T11:24:21;72.55;;;24.63;;
33902;SDS011;20194;50.950;5.346;2022-11-20T11:26:57;74.53;;;24.15;;
33902;SDS011;20194;50.950;5.346;2022-11-20T11:29:24;59.83;;;23.48;;
33902;SDS011;20194;50.950;5.346;2022-11-20T11:32:07;65.93;;;22.80;;
33902;SDS011;20194;50.950;5.346;2022-11-20T11:34:37;67.38;;;23.42;;
33902;SDS011;20194;50.950;5.346;2022-11-20T11:37:03;74.85;;;23.65;;
33902;SDS011;20194;50.950;5.346;2022-11-20T11:39:41;70.38;;;22.23;;
33902;SDS011;20194;50.950;5.346;2022-11-20T11:42:10;66.93;;;22.43;;
33902;SDS011;20194;50.950;5.346;2022-11-20T11:44:43;67.63;;;23.73;;
33902;SDS011;20194;50.950;5.346;2022-11-20T11:47:30;56.45;;;22.85;;
33902;SDS011;20194;50.950;5.346;2022-11-20T11:55:35;62.38;;;22.52;;
33902;SDS011;20194;50.950;5.346;2022-11-20T11:58:06;64.80;;;23.70;;
33902;SDS011;20194;50.950;5.346;2022-11-20T12:00:39;60.85;;;21.92;;
33902;SDS011;20194;50.950;5.346;2022-11-20T12:03:19;59.47;;;21.15;;
33902;SDS011;20194;50.950;5.346;2022-11-20T12:05:59;65.38;;;21.08;;
33902;SDS011;20194;50.950;5.346;2022-11-20T12:08:40;60.15;;;22.00;;
33902;SDS011;20194;50.950;5.346;2022-11-20T12:14:19;62.50;;;20.67;;
33902;SDS011;20194;50.950;5.346;2022-11-20T12:16:51;58.33;;;20.33;;
33902;SDS011;20194;50.950;5.346;2022-11-20T12:19:19;57.08;;;19.77;;
33902;SDS011;20194;50.950;5.346;2022-11-20T12:30:22;54.03;;;18.92;;
33902;SDS011;20194;50.950;5.346;2022-11-20T12:41:27;38.33;;;15.05;;
33902;SDS011;20194;50.950;5.346;2022-11-20T12:47:18;25.33;;;11.30;;
33902;SDS011;20194;50.950;5.346;2022-11-20T12:50:11;17.15;;;7.28;;
33902;SDS011;20194;50.950;5.346;2022-11-20T12:53:10;11.63;;;4.78;;
33902;SDS011;20194;50.950;5.346;2022-11-20T12:58:40;7.35;;;3.30;;
33902;SDS011;20194;50.950;5.346;2022-11-20T13:01:45;6.80;;;2.58;;
33902;SDS011;20194;50.950;5.346;2022-11-20T13:06:44;16.48;;;3.58;;
33902;SDS011;20194;50.950;5.346;2022-11-20T13:09:14;35.42;;;8.25;;
33902;SDS011;20194;50.950;5.346;2022-11-20T13:11:44;20.85;;;4.82;;
33902;SDS011;20194;50.950;5.346;2022-11-20T13:17:20;24.45;;;5.55;;
33902;SDS011;20194;50.950;5.346;2022-11-20T13:19:49;16.58;;;3.70;;
33902;SDS011;20194;50.950;5.346;2022-11-20T13:22:29;38.83;;;9.45;;
33902;SDS011;20194;50.950;5.346;2022-11-20T13:25:09;19.42;;;6.00;;
33902;SDS011;20194;50.950;5.346;2022-11-20T13:27:55;70.75;;;17.13;;
33902;SDS011;20194;50.950;5.346;2022-11-20T13:30:23;21.20;;;7.05;;
33902;SDS011;20194;50.950;5.346;2022-11-20T13:32:56;10.60;;;3.92;;
33902;SDS011;20194;50.950;5.346;2022-11-20T13:36:01;24.58;;;7.10;;
33902;SDS011;20194;50.950;5.346;2022-11-20T13:41:35;10.57;;;2.80;;
33902;SDS011;20194;50.950;5.346;2022-11-20T13:44:06;6.55;;;2.83;;
33902;SDS011;20194;50.950;5.346;2022-11-20T13:46:52;6.35;;;2.65;;
33902;SDS011;20194;50.950;5.346;2022-11-20T13:49:40;8.23;;;1.80;;
33902;SDS011;20194;50.950;5.346;2022-11-20T13:54:51;5.65;;;2.17;;
33902;SDS011;20194;50.950;5.346;2022-11-20T13:59:58;12.55;;;2.65;;
33902;SDS011;20194;50.950;5.346;2022-11-20T14:02:42;10.85;;;2.33;;
33902;SDS011;20194;50.950;5.346;2022-11-20T14:05:17;7.10;;;2.13;;
33902;SDS011;20194;50.950;5.346;2022-11-20T14:07:46;6.18;;;2.10;;
33902;SDS011;20194;50.950;5.346;2022-11-20T14:10:24;3.72;;;1.73;;
33902;SDS011;20194;50.950;5.346;2022-11-20T14:12:51;7.93;;;2.13;;
33902;SDS011;20194;50.950;5.346;2022-11-20T14:15:24;6.95;;;2.17;;
33902;SDS011;20194;50.950;5.346;2022-11-20T14:17:55;7.72;;;2.15;;
33902;SDS011;20194;50.950;5.346;2022-11-20T14:20:21;9.60;;;2.25;;
33902;SDS011;20194;50.950;5.346;2022-11-20T14:22:51;5.28;;;2.10;;
33902;SDS011;20194;50.950;5.346;2022-11-20T14:25:19;7.85;;;2.90;;
33902;SDS011;20194;50.950;5.346;2022-11-20T14:27:51;9.82;;;2.72;;
33902;SDS011;20194;50.950;5.346;2022-11-20T14:30:26;9.45;;;2.30;;
33902;SDS011;20194;50.950;5.346;2022-11-20T14:32:54;8.07;;;2.20;;
33902;SDS011;20194;50.950;5.346;2022-11-20T14:37:52;8.98;;;2.70;;
33902;SDS011;20194;50.950;5.346;2022-11-20T14:42:55;5.90;;;2.35;;
33902;SDS011;20194;50.950;5.346;2022-11-20T14:45:22;9.57;;;2.60;;
33902;SDS011;20194;50.950;5.346;2022-11-20T14:47:50;7.32;;;2.78;;
33902;SDS011;20194;50.950;5.346;2022-11-20T14:52:55;4.63;;;2.50;;
33902;SDS011;20194;50.950;5.346;2022-11-20T14:55:29;6.85;;;2.60;;
33902;SDS011;20194;50.950;5.346;2022-11-20T14:57:58;11.27;;;2.78;;
33902;SDS011;20194;50.950;5.346;2022-11-20T15:00:29;5.90;;;2.53;;
33902;SDS011;20194;50.950;5.346;2022-11-20T15:02:56;6.65;;;3.10;;
33902;SDS011;20194;50.950;5.346;2022-11-20T15:05:23;9.50;;;2.65;;
33902;SDS011;20194;50.950;5.346;2022-11-20T15:08:12;6.80;;;3.08;;
33902;SDS011;20194;50.950;5.346;2022-11-20T15:10:38;7.38;;;2.63;;
33902;SDS011;20194;50.950;5.346;2022-11-20T15:13:17;4.20;;;2.55;;
33902;SDS011;20194;50.950;5.346;2022-11-20T15:16:29;9.13;;;4.28;;
33902;SDS011;20194;50.950;5.346;2022-11-20T15:18:56;7.20;;;2.97;;
33902;SDS011;20194;50.950;5.346;2022-11-20T15:21:22;7.30;;;2.97;;
33902;SDS011;20194;50.950;5.346;2022-11-20T15:23:48;6.25;;;3.08;;
33902;SDS011;20194;50.950;5.346;2022-11-20T15:26:15;7.78;;;3.28;;
33902;SDS011;20194;50.950;5.346;2022-11-20T15:28:47;6.97;;;3.58;;
33902;SDS011;20194;50.950;5.346;2022-11-20T15:31:16;5.70;;;3.30;;
33902;SDS011;20194;50.950;5.346;2022-11-20T15:33:43;13.85;;;3.75;;
33902;SDS011;20194;50.950;5.346;2022-11-20T15:36:09;10.55;;;3.95;;
33902;SDS011;20194;50.950;5.346;2022-11-20T15:38:35;8.45;;;3.83;;
33902;SDS011;20194;50.950;5.346;2022-11-20T15:41:01;6.57;;;3.35;;
33902;SDS011;20194;50.950;5.346;2022-11-20T15:43:27;7.03;;;3.58;;
33902;SDS011;20194;50.950;5.346;2022-11-20T15:46:03;11.30;;;3.75;;
33902;SDS011;20194;50.950;5.346;2022-11-20T15:48:38;10.65;;;2.95;;
33902;SDS011;20194;50.950;5.346;2022-11-20T15:53:39;5.93;;;2.60;;
33902;SDS011;20194;50.950;5.346;2022-11-20T15:56:09;4.30;;;2.63;;
33902;SDS011;20194;50.950;5.346;2022-11-20T15:58:38;9.25;;;2.88;;
33902;SDS011;20194;50.950;5.346;2022-11-20T16:01:04;7.25;;;3.45;;
33902;SDS011;20194;50.950;5.346;2022-11-20T16:03:30;4.88;;;2.50;;
33902;SDS011;20194;50.950;5.346;2022-11-20T16:05:56;4.47;;;2.25;;
33902;SDS011;20194;50.950;5.346;2022-11-20T16:08:21;2.58;;;1.65;;
33902;SDS011;20194;50.950;5.346;2022-11-20T16:10:47;4.10;;;2.53;;
33902;SDS011;20194;50.950;5.346;2022-11-20T16:13:14;3.72;;;2.20;;
33902;SDS011;20194;50.950;5.346;2022-11-20T16:16:01;6.93;;;2.42;;
33902;SDS011;20194;50.950;5.346;2022-11-20T16:18:31;3.28;;;2.40;;
33902;SDS011;20194;50.950;5.346;2022-11-20T16:20:58;5.70;;;2.50;;
33902;SDS011;20194;50.950;5.346;2022-11-20T16:23:23;3.47;;;2.80;;